createdAt,value
2018-06-15T00:00:38.257Z,0.00
2018-06-15T00:01:38.281Z,0.00
2018-06-15T00:02:38.261Z,0.00
2018-06-15T00:03:38.267Z,0.00
2018-06-15T00:04:38.267Z,0.00
2018-06-15T00:05:38.267Z,0.00
2018-06-15T00:06:38.270Z,0.00
2018-06-15T00:07:38.272Z,0.00
2018-06-15T00:08:38.280Z,0.00
2018-06-15T00:09:38.276Z,0.00
2018-06-15T00:10:38.279Z,0.00
2018-06-15T00:11:38.282Z,0.00
2018-06-15T00:12:38.285Z,0.00
2018-06-15T00:13:38.286Z,0.00
2018-06-15T00:14:38.288Z,0.00
2018-06-15T00:15:38.292Z,0.00
2018-06-15T00:16:38.294Z,0.00
2018-06-15T00:17:38.297Z,0.00
2018-06-15T00:18:38.298Z,0.00
2018-06-15T00:19:38.301Z,0.00
2018-06-15T00:20:38.304Z,0.00
2018-06-15T00:21:38.307Z,0.00
2018-06-15T00:22:38.308Z,0.00
2018-06-15T00:23:38.311Z,0.00
2018-06-15T00:24:38.313Z,0.00
2018-06-15T00:25:38.315Z,0.00
2018-06-15T00:26:38.319Z,0.00
2018-06-15T00:27:38.355Z,0.00
2018-06-15T00:28:38.323Z,0.00
2018-06-15T00:29:38.325Z,0.00
2018-06-15T00:30:38.329Z,0.00
2018-06-15T00:31:38.330Z,0.00
2018-06-15T00:32:38.333Z,0.00
2018-06-15T00:33:38.334Z,0.00
2018-06-15T00:34:38.338Z,0.00
2018-06-15T00:35:38.340Z,0.00
2018-06-15T00:36:38.343Z,0.00
2018-06-15T00:37:38.344Z,0.00
2018-06-15T00:38:38.347Z,0.00
2018-06-15T00:39:38.350Z,0.00
2018-06-15T00:40:38.352Z,0.00
2018-06-15T00:41:38.355Z,0.00
2018-06-15T00:42:38.356Z,0.00
2018-06-15T00:43:38.360Z,0.00
2018-06-15T00:44:38.361Z,0.00
2018-06-15T00:45:38.370Z,0.00
2018-06-15T00:46:38.366Z,0.00
2018-06-15T00:47:38.371Z,0.00
2018-06-15T00:48:38.371Z,0.00
2018-06-15T00:49:38.373Z,0.00
2018-06-15T00:50:38.375Z,0.00
2018-06-15T00:51:38.378Z,0.00
2018-06-15T00:52:38.381Z,0.00
2018-06-15T00:53:38.383Z,0.00
2018-06-15T00:54:38.385Z,0.00
2018-06-15T00:55:38.389Z,0.00
2018-06-15T00:56:38.391Z,0.00
2018-06-15T00:57:38.395Z,0.00
2018-06-15T00:58:38.400Z,0.00
2018-06-15T00:59:38.398Z,0.00
2018-06-15T01:00:38.401Z,0.00
2018-06-15T01:01:38.401Z,0.00
2018-06-15T01:02:38.406Z,0.00
2018-06-15T01:03:38.412Z,0.00
2018-06-15T01:04:38.412Z,0.00
2018-06-15T01:05:38.411Z,0.00
2018-06-15T01:06:38.415Z,0.00
2018-06-15T01:07:38.417Z,0.00
2018-06-15T01:08:38.420Z,0.00
2018-06-15T01:09:38.421Z,0.00
2018-06-15T01:10:38.425Z,0.00
2018-06-15T01:11:38.426Z,0.00
2018-06-15T01:12:38.429Z,0.00
2018-06-15T01:13:38.431Z,0.00
2018-06-15T01:14:38.432Z,0.00
2018-06-15T01:15:38.436Z,0.00
2018-06-15T01:16:38.438Z,0.00
2018-06-15T01:17:38.441Z,0.00
2018-06-15T01:18:38.442Z,0.00
2018-06-15T01:19:38.447Z,0.00
2018-06-15T01:20:38.453Z,0.00
2018-06-15T01:21:38.449Z,0.00
2018-06-15T01:22:38.450Z,0.00
2018-06-15T01:23:38.453Z,0.00
2018-06-15T01:24:38.458Z,0.00
2018-06-15T01:25:38.458Z,0.00
2018-06-15T01:26:38.459Z,0.00
2018-06-15T01:27:38.462Z,0.00
2018-06-15T01:28:38.464Z,0.00
2018-06-15T01:29:38.466Z,0.00
2018-06-15T01:30:38.467Z,0.00
2018-06-15T01:31:38.470Z,0.00
2018-06-15T01:32:38.472Z,0.00
2018-06-15T01:33:38.473Z,0.00
2018-06-15T01:34:38.476Z,0.00
2018-06-15T01:35:38.480Z,0.00
2018-06-15T01:36:38.480Z,0.00
2018-06-15T01:37:38.480Z,0.00
2018-06-15T01:38:38.489Z,0.00
2018-06-15T01:39:38.485Z,0.00
2018-06-15T01:40:38.490Z,0.00
2018-06-15T01:41:38.488Z,0.00
2018-06-15T01:42:38.490Z,0.00
2018-06-15T01:43:38.492Z,0.00
2018-06-15T01:44:38.494Z,0.00
2018-06-15T01:45:38.495Z,0.00
2018-06-15T01:46:38.498Z,0.00
2018-06-15T01:47:38.500Z,0.00
2018-06-15T01:48:38.509Z,0.00
2018-06-15T01:49:38.503Z,0.00
2018-06-15T01:50:38.505Z,0.00
2018-06-15T01:51:38.506Z,0.00
2018-06-15T01:52:38.508Z,0.00
2018-06-15T01:53:38.509Z,0.00
2018-06-15T01:54:38.512Z,0.00
2018-06-15T01:55:38.517Z,0.00
2018-06-15T01:56:38.516Z,0.00
2018-06-15T01:57:38.517Z,0.00
2018-06-15T01:58:38.520Z,0.00
2018-06-15T01:59:38.521Z,0.00
2018-06-15T02:00:38.522Z,0.00
2018-06-15T02:01:38.524Z,0.00
2018-06-15T02:02:38.525Z,0.00
2018-06-15T02:03:38.528Z,0.00
2018-06-15T02:04:38.529Z,0.00
2018-06-15T02:05:38.534Z,0.00
2018-06-15T02:06:38.533Z,0.00
2018-06-15T02:07:38.535Z,0.00
2018-06-15T02:08:38.537Z,0.00
2018-06-15T02:09:38.539Z,0.00
2018-06-15T02:10:38.539Z,0.00
2018-06-15T02:11:38.544Z,0.00
2018-06-15T02:12:38.544Z,0.00
2018-06-15T02:13:38.546Z,0.00
2018-06-15T02:14:38.547Z,0.00
2018-06-15T02:15:38.549Z,0.00
2018-06-15T02:16:38.552Z,0.00
2018-06-15T02:17:38.552Z,0.00
2018-06-15T02:18:38.554Z,0.00
2018-06-15T02:19:38.556Z,0.00
2018-06-15T02:20:38.558Z,0.00
2018-06-15T02:21:38.559Z,0.00
2018-06-15T02:22:38.561Z,0.00
2018-06-15T02:23:38.563Z,0.00
2018-06-15T02:24:38.565Z,0.00
2018-06-15T02:25:38.566Z,0.00
2018-06-15T02:26:38.568Z,0.00
2018-06-15T02:27:38.570Z,0.00
2018-06-15T02:28:38.572Z,0.00
2018-06-15T02:29:38.573Z,0.00
2018-06-15T02:30:38.575Z,0.00
2018-06-15T02:31:38.577Z,0.00
2018-06-15T02:32:38.579Z,4.00
2018-06-15T02:33:38.581Z,4.00
2018-06-15T02:34:38.582Z,4.00
2018-06-15T02:35:38.584Z,0.00
2018-06-15T02:36:38.587Z,4.00
2018-06-15T02:37:38.587Z,4.00
2018-06-15T02:38:38.589Z,4.00
2018-06-15T02:39:38.591Z,8.00
2018-06-15T02:40:38.593Z,4.00
2018-06-15T02:41:38.594Z,8.00
2018-06-15T02:42:38.596Z,8.00
2018-06-15T02:43:38.598Z,8.00
2018-06-15T02:44:38.599Z,8.00
2018-06-15T02:45:38.602Z,12.00
2018-06-15T02:46:38.601Z,12.00
2018-06-15T02:47:38.605Z,12.00
2018-06-15T02:48:38.606Z,16.00
2018-06-15T02:49:38.607Z,16.00
2018-06-15T02:50:38.609Z,16.00
2018-06-15T02:51:38.609Z,20.00
2018-06-15T02:52:38.611Z,20.00
2018-06-15T02:53:38.613Z,20.00
2018-06-15T02:54:38.614Z,20.00
2018-06-15T02:55:38.616Z,24.00
2018-06-15T02:56:38.617Z,16.00
2018-06-15T02:57:38.622Z,20.00
2018-06-15T02:58:38.622Z,16.00
2018-06-15T02:59:38.622Z,20.00
2018-06-15T03:00:38.623Z,16.00
2018-06-15T03:01:38.625Z,16.00
2018-06-15T03:02:38.625Z,20.00
2018-06-15T03:03:38.627Z,24.00
2018-06-15T03:04:38.629Z,28.00
2018-06-15T03:05:38.629Z,32.00
2018-06-15T03:06:38.630Z,28.00
2018-06-15T03:07:38.633Z,32.00
2018-06-15T03:08:38.635Z,36.00
2018-06-15T03:09:38.634Z,32.00
2018-06-15T03:10:38.637Z,36.00
2018-06-15T03:11:38.638Z,44.00
2018-06-15T03:12:38.640Z,48.00
2018-06-15T03:13:38.641Z,52.00
2018-06-15T03:14:38.642Z,60.00
2018-06-15T03:15:38.643Z,64.00
2018-06-15T03:16:38.646Z,72.00
2018-06-15T03:17:38.645Z,88.00
2018-06-15T03:18:38.649Z,100.00
2018-06-15T03:19:38.650Z,108.00
2018-06-15T03:20:38.651Z,120.00
2018-06-15T03:21:38.652Z,136.00
2018-06-15T03:22:38.654Z,140.00
2018-06-15T03:23:38.656Z,128.00
2018-06-15T03:24:38.658Z,128.00
2018-06-15T03:25:38.658Z,144.00
2018-06-15T03:26:38.660Z,168.00
2018-06-15T03:27:38.662Z,184.00
2018-06-15T03:28:38.664Z,204.00
2018-06-15T03:29:38.665Z,220.00
2018-06-15T03:30:38.669Z,236.00
2018-06-15T03:31:38.673Z,244.00
2018-06-15T03:32:38.671Z,248.00
2018-06-15T03:33:38.671Z,248.00
2018-06-15T03:34:38.672Z,244.00
2018-06-15T03:35:38.675Z,236.00
2018-06-15T03:36:38.677Z,240.00
2018-06-15T03:37:38.701Z,248.00
2018-06-15T03:38:38.679Z,264.00
2018-06-15T03:39:38.682Z,288.00
2018-06-15T03:40:38.683Z,304.00
2018-06-15T03:41:38.684Z,312.00
2018-06-15T03:42:38.685Z,316.00
2018-06-15T03:43:38.688Z,328.00
2018-06-15T03:44:38.689Z,332.00
2018-06-15T03:45:38.691Z,340.00
2018-06-15T03:46:38.692Z,344.00
2018-06-15T03:47:38.695Z,360.00
2018-06-15T03:48:38.696Z,396.00
2018-06-15T03:49:38.698Z,444.00
2018-06-15T03:50:38.699Z,500.00
2018-06-15T03:51:38.704Z,552.00
2018-06-15T03:52:38.703Z,600.00
2018-06-15T03:53:38.708Z,640.00
2018-06-15T03:54:38.706Z,644.00
2018-06-15T03:55:38.708Z,612.00
2018-06-15T03:56:38.714Z,556.00
2018-06-15T03:57:38.711Z,496.00
2018-06-15T03:58:38.713Z,452.00
2018-06-15T03:59:38.716Z,432.00
2018-06-15T04:00:38.717Z,432.00
2018-06-15T04:01:38.720Z,440.00
2018-06-15T04:02:38.721Z,460.00
2018-06-15T04:03:38.722Z,488.00
2018-06-15T04:04:38.724Z,512.00
2018-06-15T04:05:38.727Z,524.00
2018-06-15T04:06:38.727Z,528.00
2018-06-15T04:07:38.785Z,532.00
2018-06-15T04:08:38.732Z,552.00
2018-06-15T04:09:38.734Z,580.00
2018-06-15T04:10:38.734Z,600.00
2018-06-15T04:11:38.737Z,608.00
2018-06-15T04:12:38.739Z,612.00
2018-06-15T04:13:38.741Z,628.00
2018-06-15T04:14:38.740Z,664.00
2018-06-15T04:15:38.750Z,712.00
2018-06-15T04:16:38.745Z,768.00
2018-06-15T04:17:38.749Z,828.00
2018-06-15T04:18:38.749Z,904.00
2018-06-15T04:19:38.752Z,992.00
2018-06-15T04:20:38.753Z,1088.00
2018-06-15T04:21:38.757Z,1192.00
2018-06-15T04:22:38.757Z,1284.00
2018-06-15T04:23:38.758Z,1368.00
2018-06-15T04:24:38.761Z,1448.00
2018-06-15T04:25:38.762Z,1548.00
2018-06-15T04:26:38.762Z,1684.00
2018-06-15T04:27:38.766Z,1748.00
2018-06-15T04:28:38.768Z,1820.00
2018-06-15T04:29:38.771Z,2016.00
2018-06-15T04:30:38.771Z,2232.00
2018-06-15T04:31:38.773Z,2404.00
2018-06-15T04:32:38.776Z,2476.00
2018-06-15T04:33:38.777Z,2468.00
2018-06-15T04:34:38.778Z,2536.00
2018-06-15T04:35:38.781Z,2612.00
2018-06-15T04:36:38.782Z,2784.00
2018-06-15T04:37:38.785Z,2968.00
2018-06-15T04:38:38.787Z,3220.00
2018-06-15T04:39:38.789Z,3500.00
2018-06-15T04:40:38.792Z,3588.00
2018-06-15T04:41:38.797Z,3408.00
2018-06-15T04:42:38.796Z,3280.00
2018-06-15T04:43:38.798Z,3304.00
2018-06-15T04:44:38.800Z,3504.00
2018-06-15T04:45:38.802Z,3692.00
2018-06-15T04:46:38.805Z,3700.00
2018-06-15T04:47:38.806Z,3676.00
2018-06-15T04:48:38.809Z,3696.00
2018-06-15T04:49:38.811Z,4008.00
2018-06-15T04:50:38.815Z,4316.00
2018-06-15T04:51:38.816Z,4560.00
2018-06-15T04:52:38.818Z,4932.00
2018-06-15T04:53:38.820Z,5044.00
2018-06-15T04:54:38.824Z,5212.00
2018-06-15T04:55:38.825Z,5404.00
2018-06-15T04:56:38.828Z,5700.00
2018-06-15T04:57:38.831Z,5688.00
2018-06-15T04:58:38.833Z,5580.00
2018-06-15T04:59:38.836Z,5748.00
2018-06-15T05:00:38.838Z,6164.00
2018-06-15T05:01:38.841Z,6832.00
2018-06-15T05:02:38.845Z,7248.00
2018-06-15T05:03:38.846Z,7256.00
2018-06-15T05:04:38.849Z,7328.00
2018-06-15T05:05:38.851Z,7012.00
2018-06-15T05:06:38.854Z,6508.00
2018-06-15T05:07:38.862Z,6500.00
2018-06-15T05:08:38.860Z,6528.00
2018-06-15T05:09:38.862Z,6564.00
2018-06-15T05:10:38.866Z,6564.00
2018-06-15T05:11:38.869Z,6436.00
2018-06-15T05:12:38.872Z,6116.00
2018-06-15T05:13:38.873Z,5732.00
2018-06-15T05:14:38.880Z,5508.00
2018-06-15T05:15:38.883Z,5480.00
2018-06-15T05:16:38.884Z,5516.00
2018-06-15T05:17:38.887Z,5300.00
2018-06-15T05:18:38.891Z,5240.00
2018-06-15T05:19:38.893Z,6092.00
2018-06-15T05:20:38.897Z,7268.00
2018-06-15T05:21:38.902Z,7200.00
2018-06-15T05:22:38.903Z,8004.00
2018-06-15T05:23:38.906Z,8304.00
2018-06-15T05:24:38.910Z,7012.00
2018-06-15T05:25:38.914Z,5284.00
2018-06-15T05:26:38.918Z,3896.00
2018-06-15T05:27:38.920Z,3500.00
2018-06-15T05:28:38.924Z,3116.00
2018-06-15T05:29:38.927Z,2504.00
2018-06-15T05:30:38.930Z,2028.00
2018-06-15T05:31:38.935Z,1748.00
2018-06-15T05:32:38.937Z,1640.00
2018-06-15T05:33:38.940Z,1644.00
2018-06-15T05:34:38.944Z,1844.00
2018-06-15T05:35:38.948Z,2132.00
2018-06-15T05:36:38.951Z,2380.00
2018-06-15T05:37:38.958Z,2532.00
2018-06-15T05:38:38.957Z,2564.00
2018-06-15T05:39:38.962Z,2440.00
2018-06-15T05:40:38.965Z,2392.00
2018-06-15T05:41:38.969Z,2352.00
2018-06-15T05:42:38.989Z,2304.00
2018-06-15T05:43:38.974Z,2248.00
2018-06-15T05:44:38.978Z,2132.00
2018-06-15T05:45:38.981Z,2028.00
2018-06-15T05:46:38.983Z,1964.00
2018-06-15T05:47:38.987Z,1920.00
2018-06-15T05:48:38.991Z,1952.00
2018-06-15T05:49:38.993Z,1912.00
2018-06-15T05:50:38.999Z,1836.00
2018-06-15T05:51:38.999Z,1764.00
2018-06-15T05:52:39.002Z,1688.00
2018-06-15T05:53:39.007Z,1636.00
2018-06-15T05:54:39.012Z,1616.00
2018-06-15T05:55:39.043Z,1628.00
2018-06-15T05:56:39.015Z,1688.00
2018-06-15T05:57:39.017Z,1800.00
2018-06-15T05:58:39.023Z,1948.00
2018-06-15T05:59:39.024Z,2140.00
2018-06-15T06:00:39.027Z,2456.00
2018-06-15T06:01:39.029Z,2844.00
2018-06-15T06:02:39.034Z,3016.00
2018-06-15T06:03:39.036Z,3304.00
2018-06-15T06:04:39.039Z,3836.00
2018-06-15T06:05:39.042Z,4904.00
2018-06-15T06:06:39.045Z,6340.00
2018-06-15T06:07:39.048Z,6536.00
2018-06-15T06:08:39.052Z,4816.00
2018-06-15T06:09:39.054Z,4660.00
2018-06-15T06:10:39.058Z,4572.00
2018-06-15T06:11:39.062Z,4492.00
2018-06-15T06:12:39.066Z,4576.00
2018-06-15T06:13:39.067Z,4412.00
2018-06-15T06:14:39.074Z,3712.00
2018-06-15T06:15:39.075Z,3224.00
2018-06-15T06:16:39.078Z,3120.00
2018-06-15T06:17:39.080Z,3316.00
2018-06-15T06:18:39.084Z,3668.00
2018-06-15T06:19:39.088Z,4056.00
2018-06-15T06:20:39.091Z,4496.00
2018-06-15T06:21:39.094Z,5148.00
2018-06-15T06:22:39.098Z,5728.00
2018-06-15T06:23:39.101Z,6584.00
2018-06-15T06:24:39.108Z,7260.00
2018-06-15T06:25:39.107Z,7232.00
2018-06-15T06:26:39.111Z,6652.00
2018-06-15T06:27:39.117Z,6372.00
2018-06-15T06:28:39.119Z,6696.00
2018-06-15T06:29:39.122Z,7696.00
2018-06-15T06:30:39.126Z,8828.00
2018-06-15T06:31:39.130Z,9716.00
2018-06-15T06:32:39.204Z,10260.00
2018-06-15T06:33:39.136Z,10564.00
2018-06-15T06:34:39.141Z,10092.00
2018-06-15T06:35:39.146Z,11360.00
2018-06-15T06:36:39.152Z,14344.00
2018-06-15T06:37:39.152Z,14372.00
2018-06-15T06:38:39.155Z,13560.00
2018-06-15T06:39:39.161Z,12680.00
2018-06-15T06:40:39.166Z,11984.00
2018-06-15T06:41:39.169Z,11116.00
2018-06-15T06:42:39.175Z,10144.00
2018-06-15T06:43:39.185Z,9700.00
2018-06-15T06:44:39.183Z,10436.00
2018-06-15T06:45:39.187Z,12928.00
2018-06-15T06:46:39.194Z,14636.00
2018-06-15T06:47:39.196Z,14908.00
2018-06-15T06:48:39.201Z,15816.00
2018-06-15T06:49:39.205Z,16516.00
2018-06-15T06:50:39.267Z,16636.00
2018-06-15T06:51:39.219Z,16908.00
2018-06-15T06:52:39.221Z,16520.00
2018-06-15T06:53:39.224Z,17104.00
2018-06-15T06:54:39.232Z,18240.00
2018-06-15T06:55:39.236Z,18432.00
2018-06-15T06:56:39.240Z,17980.00
2018-06-15T06:57:39.245Z,17396.00
2018-06-15T06:58:39.251Z,16440.00
2018-06-15T06:59:39.255Z,16460.00
2018-06-15T07:00:39.261Z,16104.00
2018-06-15T07:01:39.265Z,16460.00
2018-06-15T07:02:39.272Z,16624.00
2018-06-15T07:03:39.277Z,15992.00
2018-06-15T07:04:39.282Z,15556.00
2018-06-15T07:05:39.288Z,15964.00
2018-06-15T07:06:39.293Z,15484.00
2018-06-15T07:07:39.298Z,15236.00
2018-06-15T07:08:39.305Z,15008.00
2018-06-15T07:09:39.309Z,15660.00
2018-06-15T07:10:39.315Z,16172.00
2018-06-15T07:11:39.321Z,17072.00
2018-06-15T07:12:39.328Z,16040.00
2018-06-15T07:13:39.332Z,17268.00
2018-06-15T07:14:39.337Z,17036.00
2018-06-15T07:15:39.344Z,17748.00
2018-06-15T07:16:39.349Z,18400.00
2018-06-15T07:17:39.354Z,19136.00
2018-06-15T07:18:39.361Z,19872.00
2018-06-15T07:19:39.367Z,20000.00
2018-06-15T07:20:39.372Z,18784.00
2018-06-15T07:21:39.378Z,18016.00
2018-06-15T07:22:39.384Z,17952.00
2018-06-15T07:23:39.442Z,17792.00
2018-06-15T07:24:39.395Z,26240.00
2018-06-15T07:25:39.400Z,49312.00
2018-06-15T07:26:39.407Z,67328.00
2018-06-15T07:27:39.418Z,69312.00
2018-06-15T07:28:39.422Z,70688.00
2018-06-15T07:29:39.426Z,16284.00
2018-06-15T07:30:39.433Z,33504.00
2018-06-15T07:31:39.442Z,64416.00
2018-06-15T07:32:39.449Z,16572.00
2018-06-15T07:33:39.456Z,67712.00
2018-06-15T07:34:39.464Z,13952.00
2018-06-15T07:35:39.472Z,12892.00
2018-06-15T07:36:39.480Z,14928.00
2018-06-15T07:37:39.488Z,54880.00
2018-06-15T07:38:39.501Z,71232.00
2018-06-15T07:39:39.506Z,38816.00
2018-06-15T07:40:39.515Z,17144.00
2018-06-15T07:41:39.523Z,13696.00
2018-06-15T07:42:39.532Z,12616.00
2018-06-15T07:43:39.542Z,12168.00
2018-06-15T07:44:39.554Z,13044.00
2018-06-15T07:45:39.560Z,16008.00
2018-06-15T07:46:39.571Z,70816.00
2018-06-15T07:47:39.577Z,72352.00
2018-06-15T07:48:39.588Z,69280.00
2018-06-15T07:49:39.596Z,58144.00
2018-06-15T07:50:39.605Z,74144.00
2018-06-15T07:51:39.615Z,56288.00
2018-06-15T07:52:39.627Z,61856.00
2018-06-15T07:53:39.635Z,63520.00
2018-06-15T07:54:39.645Z,56864.00
2018-06-15T07:55:39.656Z,30272.00
2018-06-15T07:56:39.667Z,35360.00
2018-06-15T07:57:39.676Z,56192.00
2018-06-15T07:58:39.688Z,42848.00
2018-06-15T07:59:39.703Z,42432.00
2018-06-15T08:00:39.711Z,22816.00
2018-06-15T08:01:39.720Z,20224.00
2018-06-15T08:02:39.735Z,19648.00
2018-06-15T08:03:39.746Z,18976.00
2018-06-15T08:04:39.756Z,17856.00
2018-06-15T08:05:39.767Z,17696.00
2018-06-15T08:06:39.778Z,15800.00
2018-06-15T08:07:39.793Z,16504.00
2018-06-15T08:08:39.802Z,13744.00
2018-06-15T08:09:39.814Z,12584.00
2018-06-15T08:10:39.823Z,12596.00
2018-06-15T08:11:39.836Z,13228.00
2018-06-15T08:12:39.846Z,14752.00
2018-06-15T08:13:39.857Z,27712.00
2018-06-15T08:14:39.867Z,14320.00
2018-06-15T08:15:39.877Z,14820.00
2018-06-15T08:16:39.889Z,16208.00
2018-06-15T08:17:39.897Z,15148.00
2018-06-15T08:18:39.907Z,14448.00
2018-06-15T08:19:39.918Z,12732.00
2018-06-15T08:20:39.929Z,12200.00
2018-06-15T08:21:39.939Z,12648.00
2018-06-15T08:22:39.948Z,13636.00
2018-06-15T08:23:39.959Z,16056.00
2018-06-15T08:24:39.968Z,77344.00
2018-06-15T08:25:39.981Z,75776.00
2018-06-15T08:26:39.988Z,74720.00
2018-06-15T08:27:40.048Z,73696.00
2018-06-15T08:28:40.008Z,74368.00
2018-06-15T08:29:40.018Z,74016.00
2018-06-15T08:30:40.031Z,73312.00
2018-06-15T08:31:40.038Z,73600.00
2018-06-15T08:32:40.054Z,73312.00
2018-06-15T08:33:40.059Z,64288.00
2018-06-15T08:34:40.072Z,55040.00
2018-06-15T08:35:40.083Z,78848.00
2018-06-15T08:36:40.095Z,58400.00
2018-06-15T08:37:40.113Z,64224.00
2018-06-15T08:38:40.119Z,76832.00
2018-06-15T08:39:40.132Z,74912.00
2018-06-15T08:40:40.146Z,73280.00
2018-06-15T08:41:40.158Z,70016.00
2018-06-15T08:42:40.173Z,63200.00
2018-06-15T08:43:40.186Z,39872.00
2018-06-15T08:44:40.203Z,72000.00
2018-06-15T08:45:40.214Z,29440.00
2018-06-15T08:46:40.229Z,73664.00
2018-06-15T08:47:40.242Z,73792.00
2018-06-15T08:48:40.256Z,74208.00
2018-06-15T08:49:40.272Z,74976.00
2018-06-15T08:50:40.284Z,70336.00
2018-06-15T08:51:40.299Z,71840.00
2018-06-15T08:52:40.322Z,69824.00
2018-06-15T08:53:40.330Z,58400.00
2018-06-15T08:54:40.344Z,57696.00
2018-06-15T08:55:40.358Z,31488.00
2018-06-15T08:56:40.373Z,36960.00
2018-06-15T08:57:40.388Z,40224.00
2018-06-15T08:58:40.402Z,41056.00
2018-06-15T08:59:40.417Z,53728.00
2018-06-15T09:00:40.432Z,48480.00
2018-06-15T09:01:40.449Z,57984.00
2018-06-15T09:02:40.462Z,69088.00
2018-06-15T09:03:40.475Z,57792.00
2018-06-15T09:04:40.496Z,71392.00
2018-06-15T09:05:40.506Z,47488.00
2018-06-15T09:06:40.520Z,21824.00
2018-06-15T09:07:40.536Z,15224.00
2018-06-15T09:08:40.551Z,14744.00
2018-06-15T09:09:40.565Z,14468.00
2018-06-15T09:10:40.581Z,17216.00
2018-06-15T09:11:40.595Z,19008.00
2018-06-15T09:12:40.609Z,40704.00
2018-06-15T09:13:40.624Z,40768.00
2018-06-15T09:14:40.641Z,17056.00
2018-06-15T09:15:40.659Z,14792.00
2018-06-15T09:16:40.666Z,13744.00
2018-06-15T09:17:40.680Z,13056.00
2018-06-15T09:18:40.695Z,24736.00
2018-06-15T09:19:40.710Z,12812.00
2018-06-15T09:20:40.722Z,18208.00
2018-06-15T09:21:40.735Z,14036.00
2018-06-15T09:22:40.749Z,13076.00
2018-06-15T09:23:40.763Z,12552.00
2018-06-15T09:24:40.776Z,12108.00
2018-06-15T09:25:40.788Z,11780.00
2018-06-15T09:26:40.801Z,11260.00
2018-06-15T09:27:40.815Z,11048.00
2018-06-15T09:28:40.827Z,11696.00
2018-06-15T09:29:40.839Z,11928.00
2018-06-15T09:30:40.852Z,11948.00
2018-06-15T09:31:40.865Z,12144.00
2018-06-15T09:32:40.928Z,12324.00
2018-06-15T09:33:40.888Z,13324.00
2018-06-15T09:34:40.906Z,22848.00
2018-06-15T09:35:40.913Z,39392.00
2018-06-15T09:36:40.925Z,15660.00
2018-06-15T09:37:40.936Z,13220.00
2018-06-15T09:38:40.950Z,13100.00
2018-06-15T09:39:40.961Z,27488.00
2018-06-15T09:40:40.971Z,16576.00
2018-06-15T09:41:40.982Z,16864.00
2018-06-15T09:42:40.994Z,15540.00
2018-06-15T09:43:41.007Z,13940.00
2018-06-15T09:44:41.017Z,18592.00
2018-06-15T09:45:41.028Z,27680.00
2018-06-15T09:46:41.041Z,26592.00
2018-06-15T09:47:41.052Z,29344.00
2018-06-15T09:48:41.068Z,27584.00
2018-06-15T09:49:41.075Z,19264.00
2018-06-15T09:50:41.087Z,25472.00
2018-06-15T09:51:41.103Z,26592.00
2018-06-15T09:52:41.113Z,24576.00
2018-06-15T09:53:41.124Z,27232.00
2018-06-15T09:54:41.136Z,24256.00
2018-06-15T09:55:41.150Z,20512.00
2018-06-15T09:56:41.163Z,16236.00
2018-06-15T09:57:41.176Z,16024.00
2018-06-15T09:58:41.189Z,17056.00
2018-06-15T09:59:41.202Z,16100.00
2018-06-15T10:00:41.216Z,15072.00
2018-06-15T10:01:41.227Z,15356.00
2018-06-15T10:02:41.240Z,25248.00
2018-06-15T10:03:41.254Z,19488.00
2018-06-15T10:04:41.268Z,20064.00
2018-06-15T10:05:41.282Z,17536.00
2018-06-15T10:06:41.293Z,14316.00
2018-06-15T10:07:41.310Z,13408.00
2018-06-15T10:08:41.320Z,12764.00
2018-06-15T10:09:41.332Z,14588.00
2018-06-15T10:10:41.346Z,14016.00
2018-06-15T10:11:41.359Z,13128.00
2018-06-15T10:12:41.371Z,13180.00
2018-06-15T10:13:41.386Z,11824.00
2018-06-15T10:14:41.396Z,10680.00
2018-06-15T10:15:41.410Z,10220.00
2018-06-15T10:16:41.452Z,10376.00
2018-06-15T10:17:41.434Z,11212.00
2018-06-15T10:18:41.448Z,13816.00
2018-06-15T10:19:41.462Z,15248.00
2018-06-15T10:20:41.472Z,21536.00
2018-06-15T10:21:41.483Z,18368.00
2018-06-15T10:22:41.494Z,14548.00
2018-06-15T10:23:41.508Z,19360.00
2018-06-15T10:24:41.522Z,20512.00
2018-06-15T10:25:41.532Z,22208.00
2018-06-15T10:26:41.548Z,20800.00
2018-06-15T10:27:41.556Z,21248.00
2018-06-15T10:28:41.569Z,21120.00
2018-06-15T10:29:41.580Z,20960.00
2018-06-15T10:30:41.593Z,21408.00
2018-06-15T10:31:41.606Z,21696.00
2018-06-15T10:32:41.621Z,21280.00
2018-06-15T10:33:41.631Z,20416.00
2018-06-15T10:34:41.646Z,21632.00
2018-06-15T10:35:41.658Z,21312.00
2018-06-15T10:36:41.672Z,21120.00
2018-06-15T10:37:41.684Z,21248.00
2018-06-15T10:38:41.698Z,21536.00
2018-06-15T10:39:41.713Z,22560.00
2018-06-15T10:40:41.726Z,24032.00
2018-06-15T10:41:41.739Z,24608.00
2018-06-15T10:42:41.753Z,25920.00
2018-06-15T10:43:41.767Z,28160.00
2018-06-15T10:44:41.782Z,29312.00
2018-06-15T10:45:41.805Z,28416.00
2018-06-15T10:46:41.808Z,26976.00
2018-06-15T10:47:41.823Z,25504.00
2018-06-15T10:48:41.838Z,23648.00
2018-06-15T10:49:41.851Z,21984.00
2018-06-15T10:50:41.866Z,20512.00
2018-06-15T10:51:41.881Z,19808.00
2018-06-15T10:52:41.896Z,19072.00
2018-06-15T10:53:41.908Z,18496.00
2018-06-15T10:54:41.923Z,17472.00
2018-06-15T10:55:41.937Z,16960.00
2018-06-15T10:56:41.952Z,16704.00
2018-06-15T10:57:41.966Z,16388.00
2018-06-15T10:58:41.981Z,16080.00
2018-06-15T10:59:41.995Z,15468.00
2018-06-15T11:00:42.009Z,14440.00
2018-06-15T11:01:42.023Z,15024.00
2018-06-15T11:02:42.038Z,15148.00
2018-06-15T11:03:42.053Z,15212.00
2018-06-15T11:04:42.066Z,14624.00
2018-06-15T11:05:42.080Z,14932.00
2018-06-15T11:06:42.094Z,14752.00
2018-06-15T11:07:42.113Z,14504.00
2018-06-15T11:08:42.122Z,14496.00
2018-06-15T11:09:42.136Z,14652.00
2018-06-15T11:10:42.151Z,14280.00
2018-06-15T11:11:42.164Z,13956.00
2018-06-15T11:12:42.179Z,13820.00
2018-06-15T11:13:42.191Z,13616.00
2018-06-15T11:14:42.205Z,11284.00
2018-06-15T11:15:42.219Z,7916.00
2018-06-15T11:16:42.233Z,7940.00
2018-06-15T11:17:42.249Z,10044.00
2018-06-15T11:18:42.260Z,9964.00
2018-06-15T11:19:42.274Z,10564.00
2018-06-15T11:20:42.287Z,12864.00
2018-06-15T11:21:42.299Z,12724.00
2018-06-15T11:22:42.312Z,12356.00
2018-06-15T11:23:42.326Z,12400.00
2018-06-15T11:24:42.344Z,11800.00
2018-06-15T11:25:42.349Z,11500.00
2018-06-15T11:26:42.364Z,11204.00
2018-06-15T11:27:42.377Z,11000.00
2018-06-15T11:28:42.389Z,10784.00
2018-06-15T11:29:42.402Z,10748.00
2018-06-15T11:30:42.415Z,10820.00
2018-06-15T11:31:42.426Z,10528.00
2018-06-15T11:32:42.445Z,10692.00
2018-06-15T11:33:42.450Z,10840.00
2018-06-15T11:34:42.462Z,11120.00
2018-06-15T11:35:42.475Z,11296.00
2018-06-15T11:36:42.487Z,11416.00
2018-06-15T11:37:42.499Z,11440.00
2018-06-15T11:38:42.510Z,11204.00
2018-06-15T11:39:42.522Z,10996.00
2018-06-15T11:40:42.534Z,9232.00
2018-06-15T11:41:42.545Z,8804.00
2018-06-15T11:42:42.557Z,9984.00
2018-06-15T11:43:42.569Z,10740.00
2018-06-15T11:44:42.579Z,10264.00
2018-06-15T11:45:42.590Z,10132.00
2018-06-15T11:46:42.602Z,11268.00
2018-06-15T11:47:42.613Z,11244.00
2018-06-15T11:48:42.627Z,11812.00
2018-06-15T11:49:42.636Z,11712.00
2018-06-15T11:50:42.647Z,10804.00
2018-06-15T11:51:42.657Z,11184.00
2018-06-15T11:52:42.668Z,11308.00
2018-06-15T11:53:42.678Z,11120.00
2018-06-15T11:54:42.690Z,10852.00
2018-06-15T11:55:42.702Z,10732.00
2018-06-15T11:56:42.712Z,10684.00
2018-06-15T11:57:42.723Z,9292.00
2018-06-15T11:58:42.735Z,9804.00
2018-06-15T11:59:42.744Z,7420.00
2018-06-15T12:00:42.755Z,6940.00
2018-06-15T12:01:42.775Z,6808.00
2018-06-15T12:02:42.776Z,6972.00
2018-06-15T12:03:42.790Z,7296.00
2018-06-15T12:04:42.797Z,9052.00
2018-06-15T12:05:42.807Z,9368.00
2018-06-15T12:06:42.818Z,10328.00
2018-06-15T12:07:42.828Z,10624.00
2018-06-15T12:08:42.838Z,10872.00
2018-06-15T12:09:42.849Z,10908.00
2018-06-15T12:10:42.860Z,10904.00
2018-06-15T12:11:42.870Z,10760.00
2018-06-15T12:12:42.881Z,10572.00
2018-06-15T12:13:42.889Z,10264.00
2018-06-15T12:14:42.901Z,10028.00